sensor_id;sensor_type;location;lat;lon;timestamp;pressure;altitude;pressure_sealevel;temperature;humidity
10720;BME280;5411;58.386;15.560;2023-05-08T00:00:56;101931.13;;;6.84;55.48
10720;BME280;5411;58.386;15.560;2023-05-08T00:03:25;101933.91;;;6.83;55.60
10720;BME280;5411;58.386;15.560;2023-05-08T00:05:54;101933.38;;;6.79;56.17
10720;BME280;5411;58.386;15.560;2023-05-08T00:08:23;101935.03;;;6.80;56.42
10720;BME280;5411;58.386;15.560;2023-05-08T00:10:53;101932.81;;;6.75;56.79
10720;BME280;5411;58.386;15.560;2023-05-08T00:13:21;101931.66;;;6.68;56.43
10720;BME280;5411;58.386;15.560;2023-05-08T00:15:50;101925.50;;;6.68;56.93
10720;BME280;5411;58.386;15.560;2023-05-08T00:18:18;101931.53;;;6.70;57.23
10720;BME280;5411;58.386;15.560;2023-05-08T00:20:47;101930.13;;;6.66;57.84
10720;BME280;5411;58.386;15.560;2023-05-08T00:23:16;101919.91;;;6.61;56.91
10720;BME280;5411;58.386;15.560;2023-05-08T00:25:45;101923.41;;;6.62;57.89
10720;BME280;5411;58.386;15.560;2023-05-08T00:28:14;101919.47;;;6.56;57.79
10720;BME280;5411;58.386;15.560;2023-05-08T00:30:43;101920.44;;;6.55;58.46
10720;BME280;5411;58.386;15.560;2023-05-08T00:33:13;101928.28;;;6.57;58.69
10720;BME280;5411;58.386;15.560;2023-05-08T00:35:42;101929.00;;;6.49;58.06
10720;BME280;5411;58.386;15.560;2023-05-08T00:38:10;101934.59;;;6.46;59.47
10720;BME280;5411;58.386;15.560;2023-05-08T00:40:39;101922.41;;;6.43;59.18
10720;BME280;5411;58.386;15.560;2023-05-08T00:43:10;101938.22;;;6.45;58.84
10720;BME280;5411;58.386;15.560;2023-05-08T00:45:40;101931.91;;;6.46;59.43
10720;BME280;5411;58.386;15.560;2023-05-08T00:48:09;101932.31;;;6.41;59.35
10720;BME280;5411;58.386;15.560;2023-05-08T00:50:37;101932.31;;;6.41;60.32
10720;BME280;5411;58.386;15.560;2023-05-08T00:53:06;101930.63;;;6.40;59.72
10720;BME280;5411;58.386;15.560;2023-05-08T00:55:34;101929.66;;;6.32;59.97
10720;BME280;5411;58.386;15.560;2023-05-08T00:58:02;101944.50;;;6.34;60.44
10720;BME280;5411;58.386;15.560;2023-05-08T01:00:31;101942.09;;;6.31;60.71
10720;BME280;5411;58.386;15.560;2023-05-08T01:03:01;101946.69;;;6.29;60.65
10720;BME280;5411;58.386;15.560;2023-05-08T01:05:31;101937.75;;;6.21;60.44
10720;BME280;5411;58.386;15.560;2023-05-08T01:08:00;101941.38;;;6.20;61.32
10720;BME280;5411;58.386;15.560;2023-05-08T01:10:34;101943.75;;;6.23;60.51
10720;BME280;5411;58.386;15.560;2023-05-08T01:13:10;101936.06;;;6.20;61.08
10720;BME280;5411;58.386;15.560;2023-05-08T01:15:44;101934.09;;;6.12;61.21
10720;BME280;5411;58.386;15.560;2023-05-08T01:18:19;101945.53;;;6.13;61.38
10720;BME280;5411;58.386;15.560;2023-05-08T01:20:52;101948.34;;;6.11;61.66
10720;BME280;5411;58.386;15.560;2023-05-08T01:26:46;101938.25;;;6.05;62.31
10720;BME280;5411;58.386;15.560;2023-05-08T01:32:24;101953.72;;;6.00;62.15
10720;BME280;5411;58.386;15.560;2023-05-08T01:35:02;101942.69;;;5.95;62.68
10720;BME280;5411;58.386;15.560;2023-05-08T01:37:44;101950.66;;;5.95;62.24
10720;BME280;5411;58.386;15.560;2023-05-08T01:40:23;101949.56;;;5.97;62.89
10720;BME280;5411;58.386;15.560;2023-05-08T01:43:05;101943.78;;;5.92;63.14
10720;BME280;5411;58.386;15.560;2023-05-08T01:45:38;101951.88;;;5.91;62.83
10720;BME280;5411;58.386;15.560;2023-05-08T01:48:10;101961.78;;;5.89;63.33
10720;BME280;5411;58.386;15.560;2023-05-08T01:50:44;101957.25;;;5.80;63.23
10720;BME280;5411;58.386;15.560;2023-05-08T01:53:18;101956.94;;;5.73;64.31
10720;BME280;5411;58.386;15.560;2023-05-08T01:55:51;101960.72;;;5.70;63.96
10720;BME280;5411;58.386;15.560;2023-05-08T01:58:22;101963.75;;;5.66;63.49
10720;BME280;5411;58.386;15.560;2023-05-08T02:00:53;101971.97;;;5.63;64.98
10720;BME280;5411;58.386;15.560;2023-05-08T02:03:24;101968.16;;;5.56;65.19
10720;BME280;5411;58.386;15.560;2023-05-08T02:05:57;101975.78;;;5.49;65.21
10720;BME280;5411;58.386;15.560;2023-05-08T02:08:27;101979.09;;;5.42;64.73
10720;BME280;5411;58.386;15.560;2023-05-08T02:10:57;101986.47;;;5.38;65.28
10720;BME280;5411;58.386;15.560;2023-05-08T02:13:29;101988.66;;;5.33;65.79
10720;BME280;5411;58.386;15.560;2023-05-08T02:16:00;101983.63;;;5.30;65.86
10720;BME280;5411;58.386;15.560;2023-05-08T02:18:30;101980.50;;;5.25;65.63
10720;BME280;5411;58.386;15.560;2023-05-08T02:21:01;101984.38;;;5.21;67.14
10720;BME280;5411;58.386;15.560;2023-05-08T02:23:32;101985.03;;;5.13;66.79
10720;BME280;5411;58.386;15.560;2023-05-08T02:26:05;101979.53;;;5.05;66.24
10720;BME280;5411;58.386;15.560;2023-05-08T02:28:35;101981.72;;;5.00;66.22
10720;BME280;5411;58.386;15.560;2023-05-08T02:31:06;101976.78;;;4.95;67.00
10720;BME280;5411;58.386;15.560;2023-05-08T02:33:37;101979.94;;;4.89;66.63
10720;BME280;5411;58.386;15.560;2023-05-08T02:36:08;101983.44;;;4.90;67.61
10720;BME280;5411;58.386;15.560;2023-05-08T02:38:38;101974.28;;;4.83;67.30
10720;BME280;5411;58.386;15.560;2023-05-08T02:41:11;101978.03;;;4.80;67.14
10720;BME280;5411;58.386;15.560;2023-05-08T02:43:41;101988.78;;;4.79;67.57
10720;BME280;5411;58.386;15.560;2023-05-08T02:46:13;101974.84;;;4.65;67.77
10720;BME280;5411;58.386;15.560;2023-05-08T02:48:52;101969.06;;;4.60;67.67
10720;BME280;5411;58.386;15.560;2023-05-08T02:51:26;101984.59;;;4.65;68.79
10720;BME280;5411;58.386;15.560;2023-05-08T02:54:08;101981.84;;;4.55;69.15
10720;BME280;5411;58.386;15.560;2023-05-08T02:56:39;101989.66;;;4.57;68.94
10720;BME280;5411;58.386;15.560;2023-05-08T02:59:16;101991.59;;;4.55;68.24
10720;BME280;5411;58.386;15.560;2023-05-08T03:01:49;101986.69;;;4.50;68.96
10720;BME280;5411;58.386;15.560;2023-05-08T03:04:25;101989.34;;;4.50;69.57
10720;BME280;5411;58.386;15.560;2023-05-08T03:06:57;101973.44;;;4.50;69.59
10720;BME280;5411;58.386;15.560;2023-05-08T03:09:33;101974.84;;;4.54;70.91
10720;BME280;5411;58.386;15.560;2023-05-08T03:12:08;101978.34;;;4.55;70.12
10720;BME280;5411;58.386;15.560;2023-05-08T03:14:43;101972.19;;;4.65;69.71
10720;BME280;5411;58.386;15.560;2023-05-08T03:17:14;101979.03;;;4.79;69.40
10720;BME280;5411;58.386;15.560;2023-05-08T03:19:49;101972.13;;;4.88;69.27
10720;BME280;5411;58.386;15.560;2023-05-08T03:22:20;101982.31;;;5.04;68.67
10720;BME280;5411;58.386;15.560;2023-05-08T03:24:53;101983.69;;;5.19;67.90
10720;BME280;5411;58.386;15.560;2023-05-08T03:27:23;101979.75;;;5.34;67.96
10720;BME280;5411;58.386;15.560;2023-05-08T03:29:53;101982.91;;;5.49;67.75
10720;BME280;5411;58.386;15.560;2023-05-08T03:32:23;101983.84;;;5.59;67.76
10720;BME280;5411;58.386;15.560;2023-05-08T03:34:57;101979.44;;;5.69;67.12
10720;BME280;5411;58.386;15.560;2023-05-08T03:37:26;101986.47;;;5.80;66.57
10720;BME280;5411;58.386;15.560;2023-05-08T03:40:00;101980.38;;;5.89;66.12
10720;BME280;5411;58.386;15.560;2023-05-08T03:42:30;101980.59;;;5.97;66.91
10720;BME280;5411;58.386;15.560;2023-05-08T03:45:00;101980.50;;;6.08;66.46
10720;BME280;5411;58.386;15.560;2023-05-08T03:47:30;101976.59;;;6.12;66.10
10720;BME280;5411;58.386;15.560;2023-05-08T03:50:02;101973.72;;;6.25;66.50
10720;BME280;5411;58.386;15.560;2023-05-08T03:52:31;101975.53;;;6.34;65.61
10720;BME280;5411;58.386;15.560;2023-05-08T03:54:59;101975.69;;;6.42;65.40
10720;BME280;5411;58.386;15.560;2023-05-08T03:57:33;101978.41;;;6.52;65.74
10720;BME280;5411;58.386;15.560;2023-05-08T04:00:05;101983.16;;;6.58;65.11
10720;BME280;5411;58.386;15.560;2023-05-08T04:02:44;101981.91;;;6.62;66.44
10720;BME280;5411;58.386;15.560;2023-05-08T04:05:20;101978.81;;;6.66;66.31
10720;BME280;5411;58.386;15.560;2023-05-08T04:07:53;101981.34;;;6.68;65.75
10720;BME280;5411;58.386;15.560;2023-05-08T04:10:28;101986.53;;;6.69;65.53
10720;BME280;5411;58.386;15.560;2023-05-08T04:13:02;101978.03;;;6.75;65.62
10720;BME280;5411;58.386;15.560;2023-05-08T04:15:37;101980.81;;;6.84;65.92
10720;BME280;5411;58.386;15.560;2023-05-08T04:18:08;101977.47;;;6.91;66.23
10720;BME280;5411;58.386;15.560;2023-05-08T04:20:40;101974.81;;;7.01;65.17
10720;BME280;5411;58.386;15.560;2023-05-08T04:23:13;101976.91;;;7.07;64.95
10720;BME280;5411;58.386;15.560;2023-05-08T04:25:43;101973.13;;;7.19;64.74
10720;BME280;5411;58.386;15.560;2023-05-08T04:28:11;101981.41;;;7.26;64.58
10720;BME280;5411;58.386;15.560;2023-05-08T04:30:40;101984.19;;;7.34;64.03
10720;BME280;5411;58.386;15.560;2023-05-08T04:33:10;101973.25;;;7.37;63.64
10720;BME280;5411;58.386;15.560;2023-05-08T04:35:40;101977.88;;;7.44;63.39
10720;BME280;5411;58.386;15.560;2023-05-08T04:38:09;101981.50;;;7.53;63.39
10720;BME280;5411;58.386;15.560;2023-05-08T04:40:38;101985.25;;;7.60;62.99
10720;BME280;5411;58.386;15.560;2023-05-08T04:43:07;101983.44;;;7.70;62.98
10720;BME280;5411;58.386;15.560;2023-05-08T04:45:36;101971.22;;;7.77;62.33
10720;BME280;5411;58.386;15.560;2023-05-08T04:48:05;101969.66;;;7.84;61.90
10720;BME280;5411;58.386;15.560;2023-05-08T04:50:34;101984.34;;;7.98;62.03
10720;BME280;5411;58.386;15.560;2023-05-08T04:53:04;101984.28;;;8.08;61.96
10720;BME280;5411;58.386;15.560;2023-05-08T04:55:33;101976.84;;;8.11;61.89
10720;BME280;5411;58.386;15.560;2023-05-08T04:58:01;101979.84;;;8.26;61.13
10720;BME280;5411;58.386;15.560;2023-05-08T05:00:30;101973.97;;;8.32;60.38
10720;BME280;5411;58.386;15.560;2023-05-08T05:02:59;101984.28;;;8.45;60.95
10720;BME280;5411;58.386;15.560;2023-05-08T05:05:27;101984.09;;;8.56;60.07
10720;BME280;5411;58.386;15.560;2023-05-08T05:07:57;101993.31;;;8.62;59.42
10720;BME280;5411;58.386;15.560;2023-05-08T05:10:27;101995.78;;;8.73;58.20
10720;BME280;5411;58.386;15.560;2023-05-08T05:12:55;102001.75;;;8.84;58.26
10720;BME280;5411;58.386;15.560;2023-05-08T05:15:24;102005.50;;;8.91;57.36
10720;BME280;5411;58.386;15.560;2023-05-08T05:17:52;101995.59;;;9.02;57.18
10720;BME280;5411;58.386;15.560;2023-05-08T05:20:21;101992.28;;;9.08;56.55
10720;BME280;5411;58.386;15.560;2023-05-08T05:22:50;102007.63;;;9.23;56.69
10720;BME280;5411;58.386;15.560;2023-05-08T05:25:25;101996.34;;;9.29;56.25
10720;BME280;5411;58.386;15.560;2023-05-08T05:27:58;102000.28;;;9.43;55.61
10720;BME280;5411;58.386;15.560;2023-05-08T05:30:27;101996.53;;;9.54;55.05
10720;BME280;5411;58.386;15.560;2023-05-08T05:32:56;102000.25;;;9.61;54.37
10720;BME280;5411;58.386;15.560;2023-05-08T05:35:25;102002.16;;;9.69;54.12
10720;BME280;5411;58.386;15.560;2023-05-08T05:37:54;101998.53;;;9.78;53.99
10720;BME280;5411;58.386;15.560;2023-05-08T05:40:23;101998.75;;;9.84;53.57
10720;BME280;5411;58.386;15.560;2023-05-08T05:42:52;101987.25;;;9.92;53.89
10720;BME280;5411;58.386;15.560;2023-05-08T05:45:22;101993.84;;;10.06;53.95
10720;BME280;5411;58.386;15.560;2023-05-08T05:47:51;101998.09;;;10.16;53.38
10720;BME280;5411;58.386;15.560;2023-05-08T05:50:20;102003.72;;;10.31;53.67
10720;BME280;5411;58.386;15.560;2023-05-08T05:52:48;102002.41;;;10.43;51.82
10720;BME280;5411;58.386;15.560;2023-05-08T05:55:17;101996.59;;;10.48;51.63
10720;BME280;5411;58.386;15.560;2023-05-08T05:57:47;102005.47;;;10.56;52.11
10720;BME280;5411;58.386;15.560;2023-05-08T06:00:16;101999.50;;;10.62;51.58
10720;BME280;5411;58.386;15.560;2023-05-08T06:02:47;102000.19;;;10.73;51.22
10720;BME280;5411;58.386;15.560;2023-05-08T06:05:16;101997.34;;;10.82;51.07
10720;BME280;5411;58.386;15.560;2023-05-08T06:07:45;102000.91;;;10.91;50.17
10720;BME280;5411;58.386;15.560;2023-05-08T06:10:13;101999.38;;;10.96;50.03
10720;BME280;5411;58.386;15.560;2023-05-08T06:12:41;101997.75;;;11.03;50.27
10720;BME280;5411;58.386;15.560;2023-05-08T06:15:13;101993.06;;;11.14;49.51
10720;BME280;5411;58.386;15.560;2023-05-08T06:17:42;101999.94;;;11.24;49.32
10720;BME280;5411;58.386;15.560;2023-05-08T06:20:14;102002.28;;;11.35;48.95
10720;BME280;5411;58.386;15.560;2023-05-08T06:22:43;102003.97;;;11.45;48.70
10720;BME280;5411;58.386;15.560;2023-05-08T06:25:11;102008.16;;;11.55;48.38
10720;BME280;5411;58.386;15.560;2023-05-08T06:27:42;101997.25;;;11.65;48.54
10720;BME280;5411;58.386;15.560;2023-05-08T06:30:12;102000.56;;;11.75;48.12
10720;BME280;5411;58.386;15.560;2023-05-08T06:32:42;102002.91;;;11.86;48.54
10720;BME280;5411;58.386;15.560;2023-05-08T06:35:12;101994.38;;;11.91;47.02
10720;BME280;5411;58.386;15.560;2023-05-08T06:37:44;101995.38;;;11.90;46.30
10720;BME280;5411;58.386;15.560;2023-05-08T06:40:15;101998.22;;;11.96;46.85
10720;BME280;5411;58.386;15.560;2023-05-08T06:42:45;101993.00;;;12.11;47.08
10720;BME280;5411;58.386;15.560;2023-05-08T06:45:14;101991.13;;;12.20;46.69
10720;BME280;5411;58.386;15.560;2023-05-08T06:47:43;101994.41;;;12.30;46.08
10720;BME280;5411;58.386;15.560;2023-05-08T06:50:13;101993.03;;;12.42;45.94
10720;BME280;5411;58.386;15.560;2023-05-08T06:52:42;101997.16;;;12.53;45.74
10720;BME280;5411;58.386;15.560;2023-05-08T06:55:15;102004.03;;;12.63;45.23
10720;BME280;5411;58.386;15.560;2023-05-08T06:57:44;101990.84;;;12.76;44.61
10720;BME280;5411;58.386;15.560;2023-05-08T07:00:15;101988.44;;;12.81;45.44
10720;BME280;5411;58.386;15.560;2023-05-08T07:02:44;101990.13;;;12.82;43.02
10720;BME280;5411;58.386;15.560;2023-05-08T07:05:17;101985.19;;;12.94;43.47
10720;BME280;5411;58.386;15.560;2023-05-08T07:07:46;101982.28;;;13.04;43.85
10720;BME280;5411;58.386;15.560;2023-05-08T07:10:15;101980.31;;;13.20;43.37
10720;BME280;5411;58.386;15.560;2023-05-08T07:12:45;101988.16;;;13.30;41.70
10720;BME280;5411;58.386;15.560;2023-05-08T07:15:14;101983.50;;;13.24;40.85
10720;BME280;5411;58.386;15.560;2023-05-08T07:17:55;101984.06;;;13.34;41.72
10720;BME280;5411;58.386;15.560;2023-05-08T07:20:25;101982.63;;;13.46;42.74
10720;BME280;5411;58.386;15.560;2023-05-08T07:22:55;101988.50;;;13.65;40.95
10720;BME280;5411;58.386;15.560;2023-05-08T07:25:24;101981.38;;;13.72;40.02
10720;BME280;5411;58.386;15.560;2023-05-08T07:27:53;101978.34;;;13.89;40.06
10720;BME280;5411;58.386;15.560;2023-05-08T07:30:22;101965.63;;;13.98;40.13
10720;BME280;5411;58.386;15.560;2023-05-08T07:32:51;101976.50;;;14.05;38.85
10720;BME280;5411;58.386;15.560;2023-05-08T07:35:21;101974.63;;;14.05;39.01
10720;BME280;5411;58.386;15.560;2023-05-08T07:37:51;101972.22;;;14.10;39.79
10720;BME280;5411;58.386;15.560;2023-05-08T07:40:20;101972.41;;;14.23;39.96
10720;BME280;5411;58.386;15.560;2023-05-08T07:42:49;101966.38;;;14.21;38.81
10720;BME280;5411;58.386;15.560;2023-05-08T07:45:17;101981.22;;;14.32;38.65
10720;BME280;5411;58.386;15.560;2023-05-08T07:47:49;101975.66;;;14.34;39.05
10720;BME280;5411;58.386;15.560;2023-05-08T07:50:20;101967.19;;;14.37;38.85
10720;BME280;5411;58.386;15.560;2023-05-08T07:52:49;101969.16;;;14.43;38.91
10720;BME280;5411;58.386;15.560;2023-05-08T07:55:20;101968.84;;;14.52;38.48
10720;BME280;5411;58.386;15.560;2023-05-08T07:57:48;101967.28;;;14.58;38.75
10720;BME280;5411;58.386;15.560;2023-05-08T08:00:17;101969.94;;;14.73;38.59
10720;BME280;5411;58.386;15.560;2023-05-08T08:02:46;101971.09;;;14.85;38.75
10720;BME280;5411;58.386;15.560;2023-05-08T08:05:15;101964.81;;;14.99;38.91
10720;BME280;5411;58.386;15.560;2023-05-08T08:07:47;101965.31;;;15.09;37.69
10720;BME280;5411;58.386;15.560;2023-05-08T08:10:18;101965.81;;;15.19;37.99
10720;BME280;5411;58.386;15.560;2023-05-08T08:12:47;101972.38;;;15.31;38.29
10720;BME280;5411;58.386;15.560;2023-05-08T08:15:16;101974.94;;;15.40;37.12
10720;BME280;5411;58.386;15.560;2023-05-08T08:17:45;101958.38;;;15.43;37.90
10720;BME280;5411;58.386;15.560;2023-05-08T08:20:16;101962.25;;;15.55;38.52
10720;BME280;5411;58.386;15.560;2023-05-08T08:22:44;101962.91;;;15.63;37.92
10720;BME280;5411;58.386;15.560;2023-05-08T08:25:14;101956.97;;;15.75;36.55
10720;BME280;5411;58.386;15.560;2023-05-08T08:27:45;101966.38;;;15.85;36.93
10720;BME280;5411;58.386;15.560;2023-05-08T08:30:14;101964.38;;;15.94;36.27
10720;BME280;5411;58.386;15.560;2023-05-08T08:32:44;101958.72;;;15.89;35.50
10720;BME280;5411;58.386;15.560;2023-05-08T08:35:34;101963.72;;;15.92;36.45
10720;BME280;5411;58.386;15.560;2023-05-08T08:38:02;101948.16;;;15.94;36.12
10720;BME280;5411;58.386;15.560;2023-05-08T08:40:32;101956.75;;;16.04;35.24
10720;BME280;5411;58.386;15.560;2023-05-08T08:43:02;101947.44;;;16.13;34.86
10720;BME280;5411;58.386;15.560;2023-05-08T08:45:33;101952.88;;;16.20;34.71
10720;BME280;5411;58.386;15.560;2023-05-08T08:48:04;101951.84;;;16.21;35.08
10720;BME280;5411;58.386;15.560;2023-05-08T08:50:34;101945.22;;;16.23;35.19
10720;BME280;5411;58.386;15.560;2023-05-08T08:53:07;101944.78;;;16.20;34.67
10720;BME280;5411;58.386;15.560;2023-05-08T08:55:39;101942.09;;;16.26;36.92
10720;BME280;5411;58.386;15.560;2023-05-08T08:58:16;101945.66;;;16.33;35.81
10720;BME280;5411;58.386;15.560;2023-05-08T09:00:49;101939.88;;;16.43;34.53
10720;BME280;5411;58.386;15.560;2023-05-08T09:03:20;101940.13;;;16.48;34.58
10720;BME280;5411;58.386;15.560;2023-05-08T09:05:51;101934.06;;;16.46;34.65
10720;BME280;5411;58.386;15.560;2023-05-08T09:08:21;101929.50;;;16.47;34.94
10720;BME280;5411;58.386;15.560;2023-05-08T09:10:50;101933.47;;;16.51;34.81
10720;BME280;5411;58.386;15.560;2023-05-08T09:13:22;101926.03;;;16.66;35.87
10720;BME280;5411;58.386;15.560;2023-05-08T09:15:50;101923.59;;;16.84;34.94
10720;BME280;5411;58.386;15.560;2023-05-08T09:18:20;101920.69;;;16.92;34.44
10720;BME280;5411;58.386;15.560;2023-05-08T09:20:49;101925.28;;;16.98;33.96
10720;BME280;5411;58.386;15.560;2023-05-08T09:23:18;101917.78;;;17.00;33.53
10720;BME280;5411;58.386;15.560;2023-05-08T09:25:48;101917.59;;;17.02;33.53
10720;BME280;5411;58.386;15.560;2023-05-08T09:28:18;101911.97;;;16.97;34.12
10720;BME280;5411;58.386;15.560;2023-05-08T09:30:53;101916.13;;;16.99;32.93
10720;BME280;5411;58.386;15.560;2023-05-08T09:33:23;101912.38;;;17.07;33.03
10720;BME280;5411;58.386;15.560;2023-05-08T09:36:23;101912.00;;;17.17;33.07
10720;BME280;5411;58.386;15.560;2023-05-08T09:38:52;101905.31;;;17.19;33.02
10720;BME280;5411;58.386;15.560;2023-05-08T09:41:21;101908.63;;;17.21;33.21
10720;BME280;5411;58.386;15.560;2023-05-08T09:44:00;101889.28;;;17.24;33.69
10720;BME280;5411;58.386;15.560;2023-05-08T09:46:31;101892.41;;;17.41;33.98
10720;BME280;5411;58.386;15.560;2023-05-08T09:49:02;101890.94;;;17.52;32.29
10720;BME280;5411;58.386;15.560;2023-05-08T09:51:31;101896.09;;;17.60;33.16
10720;BME280;5411;58.386;15.560;2023-05-08T09:54:00;101892.34;;;17.74;32.64
10720;BME280;5411;58.386;15.560;2023-05-08T09:56:33;101887.09;;;17.92;33.42
10720;BME280;5411;58.386;15.560;2023-05-08T09:59:21;101892.06;;;18.02;32.51
10720;BME280;5411;58.386;15.560;2023-05-08T10:01:53;101880.53;;;18.20;32.14
10720;BME280;5411;58.386;15.560;2023-05-08T10:04:34;101882.13;;;18.34;31.99
10720;BME280;5411;58.386;15.560;2023-05-08T10:07:08;101874.16;;;18.45;31.69
10720;BME280;5411;58.386;15.560;2023-05-08T10:09:36;101877.63;;;18.52;31.45
10720;BME280;5411;58.386;15.560;2023-05-08T10:12:16;101873.59;;;18.68;30.74
10720;BME280;5411;58.386;15.560;2023-05-08T10:14:44;101870.75;;;18.63;30.16
10720;BME280;5411;58.386;15.560;2023-05-08T10:28:15;101867.88;;;18.83;31.28
10720;BME280;5411;58.386;15.560;2023-05-08T10:30:47;101870.59;;;18.83;30.15
10720;BME280;5411;58.386;15.560;2023-05-08T10:33:19;101863.91;;;18.85;29.38
10720;BME280;5411;58.386;15.560;2023-05-08T10:35:48;101857.94;;;18.70;29.71
10720;BME280;5411;58.386;15.560;2023-05-08T10:38:18;101865.03;;;18.71;29.44
10720;BME280;5411;58.386;15.560;2023-05-08T10:40:49;101845.84;;;18.73;29.28
10720;BME280;5411;58.386;15.560;2023-05-08T10:43:25;101856.38;;;18.88;29.61
10720;BME280;5411;58.386;15.560;2023-05-08T10:45:56;101835.59;;;19.00;29.46
10720;BME280;5411;58.386;15.560;2023-05-08T10:48:30;101848.66;;;19.09;28.71
10720;BME280;5411;58.386;15.560;2023-05-08T10:51:09;101843.22;;;19.09;27.50
10720;BME280;5411;58.386;15.560;2023-05-08T10:53:47;101838.13;;;19.19;29.13
10720;BME280;5411;58.386;15.560;2023-05-08T10:56:25;101845.47;;;19.37;28.38
10720;BME280;5411;58.386;15.560;2023-05-08T10:58:58;101840.34;;;19.47;28.44
10720;BME280;5411;58.386;15.560;2023-05-08T11:01:27;101837.44;;;19.49;27.48
10720;BME280;5411;58.386;15.560;2023-05-08T11:03:56;101836.91;;;19.58;27.15
10720;BME280;5411;58.386;15.560;2023-05-08T11:06:51;101828.47;;;19.67;27.74
10720;BME280;5411;58.386;15.560;2023-05-08T11:09:43;101821.38;;;19.66;27.37
10720;BME280;5411;58.386;15.560;2023-05-08T11:12:25;101823.13;;;19.78;27.89
10720;BME280;5411;58.386;15.560;2023-05-08T11:14:59;101821.00;;;19.80;26.37
10720;BME280;5411;58.386;15.560;2023-05-08T11:17:29;101823.50;;;19.82;26.15
10720;BME280;5411;58.386;15.560;2023-05-08T11:19:58;101822.66;;;19.81;25.55
10720;BME280;5411;58.386;15.560;2023-05-08T11:22:28;101796.94;;;19.84;26.56
10720;BME280;5411;58.386;15.560;2023-05-08T11:25:01;101795.63;;;19.86;26.06
10720;BME280;5411;58.386;15.560;2023-05-08T11:30:37;101811.44;;;20.08;26.52
10720;BME280;5411;58.386;15.560;2023-05-08T11:33:15;101803.41;;;20.13;26.36
10720;BME280;5411;58.386;15.560;2023-05-08T11:35:49;101812.56;;;20.18;25.75
10720;BME280;5411;58.386;15.560;2023-05-08T11:38:23;101806.50;;;20.16;25.29
10720;BME280;5411;58.386;15.560;2023-05-08T11:40:58;101802.81;;;20.11;25.72
10720;BME280;5411;58.386;15.560;2023-05-08T11:43:57;101794.44;;;20.12;25.33
10720;BME280;5411;58.386;15.560;2023-05-08T11:46:42;101797.31;;;20.17;25.24
10720;BME280;5411;58.386;15.560;2023-05-08T11:49:13;101788.78;;;20.14;24.08
10720;BME280;5411;58.386;15.560;2023-05-08T11:51:57;101780.38;;;20.15;25.01
10720;BME280;5411;58.386;15.560;2023-05-08T11:54:28;101791.19;;;20.22;25.43
10720;BME280;5411;58.386;15.560;2023-05-08T11:56:57;101788.81;;;20.25;24.66
10720;BME280;5411;58.386;15.560;2023-05-08T11:59:27;101781.84;;;20.29;25.30
10720;BME280;5411;58.386;15.560;2023-05-08T12:01:57;101780.75;;;20.37;24.89
10720;BME280;5411;58.386;15.560;2023-05-08T12:04:44;101775.56;;;20.47;25.38
10720;BME280;5411;58.386;15.560;2023-05-08T12:07:13;101775.66;;;20.52;24.06
10720;BME280;5411;58.386;15.560;2023-05-08T12:09:47;101772.72;;;20.54;24.61
10720;BME280;5411;58.386;15.560;2023-05-08T12:15:09;101761.84;;;20.54;23.97
10720;BME280;5411;58.386;15.560;2023-05-08T12:17:40;101766.09;;;20.50;23.44
10720;BME280;5411;58.386;15.560;2023-05-08T12:20:09;101766.22;;;20.55;24.34
10720;BME280;5411;58.386;15.560;2023-05-08T12:22:49;101763.72;;;20.53;23.59
10720;BME280;5411;58.386;15.560;2023-05-08T12:25:18;101759.84;;;20.61;24.32
10720;BME280;5411;58.386;15.560;2023-05-08T12:27:47;101754.28;;;20.68;24.44
10720;BME280;5411;58.386;15.560;2023-05-08T12:30:16;101746.94;;;20.68;23.28
10720;BME280;5411;58.386;15.560;2023-05-08T12:32:49;101749.44;;;20.58;22.87
10720;BME280;5411;58.386;15.560;2023-05-08T12:35:19;101739.75;;;20.50;23.69
10720;BME280;5411;58.386;15.560;2023-05-08T12:37:49;101735.09;;;20.51;24.66
10720;BME280;5411;58.386;15.560;2023-05-08T12:40:27;101744.00;;;20.58;24.95
10720;BME280;5411;58.386;15.560;2023-05-08T12:42:56;101741.50;;;20.56;24.38
10720;BME280;5411;58.386;15.560;2023-05-08T12:45:32;101730.53;;;20.63;25.09
10720;BME280;5411;58.386;15.560;2023-05-08T12:48:04;101724.25;;;20.74;24.30
10720;BME280;5411;58.386;15.560;2023-05-08T12:50:35;101720.25;;;20.77;24.25
10720;BME280;5411;58.386;15.560;2023-05-08T12:53:06;101720.47;;;20.87;24.03
10720;BME280;5411;58.386;15.560;2023-05-08T12:55:36;101713.22;;;20.92;24.35
10720;BME280;5411;58.386;15.560;2023-05-08T12:58:06;101719.72;;;20.91;22.58
10720;BME280;5411;58.386;15.560;2023-05-08T13:00:44;101717.84;;;20.92;23.23
10720;BME280;5411;58.386;15.560;2023-05-08T13:03:21;101712.41;;;20.92;23.12
10720;BME280;5411;58.386;15.560;2023-05-08T13:05:53;101711.09;;;20.94;22.77
10720;BME280;5411;58.386;15.560;2023-05-08T13:08:28;101711.94;;;20.95;22.41
10720;BME280;5411;58.386;15.560;2023-05-08T13:10:57;101703.53;;;20.96;22.92
10720;BME280;5411;58.386;15.560;2023-05-08T13:13:28;101696.78;;;20.99;22.75
10720;BME280;5411;58.386;15.560;2023-05-08T13:16:01;101698.31;;;21.07;22.66
10720;BME280;5411;58.386;15.560;2023-05-08T13:18:37;101705.16;;;21.09;22.88
10720;BME280;5411;58.386;15.560;2023-05-08T13:21:05;101700.78;;;21.08;21.35
10720;BME280;5411;58.386;15.560;2023-05-08T13:23:34;101695.47;;;21.13;22.52
10720;BME280;5411;58.386;15.560;2023-05-08T13:26:02;101696.88;;;21.16;23.09
10720;BME280;5411;58.386;15.560;2023-05-08T13:28:31;101692.28;;;21.16;23.14
10720;BME280;5411;58.386;15.560;2023-05-08T13:31:02;101676.66;;;21.23;23.15
10720;BME280;5411;58.386;15.560;2023-05-08T13:33:37;101683.88;;;21.29;22.62
10720;BME280;5411;58.386;15.560;2023-05-08T13:36:06;101685.84;;;21.34;23.58
10720;BME280;5411;58.386;15.560;2023-05-08T13:38:42;101681.47;;;21.33;22.29
10720;BME280;5411;58.386;15.560;2023-05-08T13:41:12;101681.56;;;21.38;23.71